General Aviation Weather

Text Reports

Enter one or more of the following location identifiers separated by a space:

Zip Code, Four-Character ICAO or Three-Character IATA airport codes.

METAR - Aviation Routine Weather Report
KGDJ - Granbury, Texas
Updated at 2:55 PM GMT on February 06, 2016 (8:55 AM CST):
METAR KGDJ 061455Z AUTO 31015G20KT 10SM CLR 07/02 A3035 RMK AO2 T00650016
TAF - Terminal Area Forecast
KGDJ - Granbury, Texas
Updated at 2:55 PM GMT on February 06, 2016 (8:55 AM CST):
No TAF is currently available for this location.
Decoded:
No decoded TAF is available.
PIREP - Pilot Weather Report
KGDJ - Granbury, Texas
Updated at 2:55 PM GMT on February 06, 2016 (8:55 AM CST):
No PIREP is currently available for this location.
AIRMET - Airmens Meteorological Information
KGDJ - Granbury, Texas
Updated at 2:55 PM GMT on February 06, 2016 (8:55 AM CST):
No AIRMET is currently available for this location.
SIGMET - Significant Meteorological Information
KGDJ - Granbury, Texas
Updated at 2:55 PM GMT on February 06, 2016 (8:55 AM CST):
No SIGMET is currently available for this location.
NOTAM - Notice to Airmen
KGDJ - Granbury, Texas
Updated at 2:55 PM GMT on February 06, 2016 (8:55 AM CST):
No NOTAM is currently available for this location.
Forecast Area
KGDJ - Granbury, Texas
Updated at 2:55 PM GMT on February 06, 2016 (8:55 AM CST):
No NOTAM is currently available for this location.
Aviation Weather Maps